createdAt,value
2023-04-26T00:00:02.071Z,16.37
2023-04-26T00:02:34.473Z,11.67
2023-04-26T00:05:05.187Z,14.43
2023-04-26T00:07:34.005Z,13.50
2023-04-26T00:10:02.280Z,12.97
2023-04-26T00:12:30.280Z,14.23
2023-04-26T00:14:58.399Z,12.50
2023-04-26T00:17:26.570Z,12.60
2023-04-26T00:19:54.753Z,11.27
2023-04-26T00:22:25.019Z,13.70
2023-04-26T00:24:53.074Z,11.37
2023-04-26T00:27:21.088Z,13.67
2023-04-26T00:29:49.114Z,12.50
2023-04-26T00:32:17.217Z,13.13
2023-04-26T00:34:45.473Z,12.67
2023-04-26T00:37:14.453Z,11.70
2023-04-26T00:39:44.131Z,11.60
2023-04-26T00:42:12.209Z,11.10
2023-04-26T00:44:40.450Z,12.83
2023-04-26T00:47:09.455Z,11.03
2023-04-26T00:49:38.058Z,11.10
2023-04-26T00:52:06.586Z,11.70
2023-04-26T00:54:34.807Z,10.70
2023-04-26T00:57:04.372Z,10.80
2023-04-26T00:59:33.481Z,10.73
2023-04-26T01:02:01.710Z,11.03
2023-04-26T01:04:30.411Z,10.53
2023-04-26T01:06:59.309Z,11.57
2023-04-26T01:09:27.354Z,11.63
2023-04-26T01:11:58.577Z,10.63
2023-04-26T01:14:28.731Z,9.40
2023-04-26T01:16:58.186Z,10.37
2023-04-26T01:19:26.219Z,11.90
2023-04-26T01:21:54.259Z,9.70
2023-04-26T01:24:23.962Z,10.20
2023-04-26T01:26:52.185Z,11.17
2023-04-26T01:29:24.280Z,9.60
2023-04-26T01:31:52.416Z,9.60
2023-04-26T01:34:20.905Z,12.83
2023-04-26T01:36:48.993Z,8.93
2023-04-26T01:39:17.083Z,11.30
2023-04-26T01:41:46.527Z,11.17
2023-04-26T01:44:14.841Z,17.63
2023-04-26T01:46:43.059Z,13.60
2023-04-26T01:49:14.153Z,14.03
2023-04-26T01:51:42.393Z,12.60
2023-04-26T01:54:10.372Z,12.10
2023-04-26T01:56:38.514Z,16.57
2023-04-26T01:59:08.006Z,14.57
2023-04-26T02:01:36.149Z,13.90
2023-04-26T02:04:04.521Z,14.70
2023-04-26T02:06:32.822Z,16.07
2023-04-26T02:09:00.899Z,17.10
2023-04-26T02:11:28.938Z,16.17
2023-04-26T02:13:57.059Z,14.73
2023-04-26T02:16:27.219Z,15.93
2023-04-26T02:18:55.808Z,17.13
2023-04-26T02:21:24.000Z,16.70
2023-04-26T02:23:52.153Z,19.73
2023-04-26T02:26:20.287Z,19.67
2023-04-26T02:28:48.432Z,13.93
2023-04-26T02:31:16.557Z,19.00
2023-04-26T02:33:46.361Z,14.03
2023-04-26T02:36:14.498Z,14.60
2023-04-26T02:38:42.638Z,11.47
2023-04-26T02:41:10.686Z,14.17
2023-04-26T02:43:38.956Z,15.33
2023-04-26T02:46:08.543Z,13.47
2023-04-26T02:48:36.912Z,12.83
2023-04-26T02:51:07.376Z,14.47
2023-04-26T02:53:35.848Z,13.13
2023-04-26T02:56:03.939Z,13.53
2023-04-26T02:58:31.974Z,17.00
2023-04-26T03:01:01.647Z,13.33
2023-04-26T03:03:31.097Z,15.40
2023-04-26T03:05:59.541Z,12.87
2023-04-26T03:08:29.128Z,13.00
2023-04-26T03:10:57.214Z,15.30
2023-04-26T03:13:25.325Z,13.70
2023-04-26T03:15:56.008Z,14.07
2023-04-26T03:18:24.058Z,12.67
2023-04-26T03:20:53.688Z,14.37
2023-04-26T03:23:24.298Z,13.60
2023-04-26T03:25:54.819Z,14.30
2023-04-26T03:28:23.628Z,12.33
2023-04-26T03:30:51.851Z,16.53
2023-04-26T03:33:21.461Z,14.40
2023-04-26T03:35:49.789Z,14.83
2023-04-26T03:38:18.213Z,13.47
2023-04-26T03:40:46.556Z,13.90
2023-04-26T03:43:16.151Z,12.70
2023-04-26T03:45:50.085Z,15.43
2023-04-26T03:48:18.295Z,13.37
2023-04-26T03:50:46.966Z,13.47
2023-04-26T03:53:15.118Z,12.13
2023-04-26T03:55:43.380Z,13.83
2023-04-26T03:58:11.451Z,13.37
2023-04-26T04:00:42.240Z,13.27
2023-04-26T04:03:10.644Z,11.47
2023-04-26T04:05:39.282Z,12.43
2023-04-26T04:08:07.666Z,14.90
2023-04-26T04:10:37.983Z,12.67
2023-04-26T04:13:06.054Z,12.83
2023-04-26T04:15:34.181Z,15.80
2023-04-26T04:18:04.335Z,15.80
2023-04-26T04:20:32.436Z,13.10
2023-04-26T04:23:02.153Z,14.23
2023-04-26T04:25:30.927Z,17.57
2023-04-26T04:28:02.829Z,13.47
2023-04-26T04:30:31.046Z,14.83
2023-04-26T04:33:00.291Z,14.00
2023-04-26T04:35:33.782Z,13.17
2023-04-26T04:38:04.381Z,17.90
2023-04-26T04:40:33.145Z,14.10
2023-04-26T04:43:02.310Z,14.90
2023-04-26T04:45:32.538Z,16.60
2023-04-26T04:48:02.095Z,15.73
2023-04-26T04:50:32.612Z,16.13
2023-04-26T04:53:00.871Z,15.27
2023-04-26T04:55:29.805Z,14.80
2023-04-26T04:57:58.512Z,14.80
2023-04-26T05:00:27.622Z,14.40
2023-04-26T05:03:16.247Z,14.17
2023-04-26T05:05:46.025Z,13.93
2023-04-26T05:08:14.078Z,12.10
2023-04-26T05:10:42.326Z,15.03
2023-04-26T05:13:11.408Z,13.70
2023-04-26T05:15:40.480Z,12.83
2023-04-26T05:18:08.978Z,15.70
2023-04-26T05:20:37.700Z,14.60
2023-04-26T05:23:07.728Z,16.33
2023-04-26T05:25:38.600Z,16.37
2023-04-26T05:28:26.610Z,12.57
2023-04-26T05:31:24.458Z,15.33
2023-04-26T05:34:04.381Z,12.60
2023-04-26T05:36:38.041Z,14.93
2023-04-26T05:39:08.392Z,14.40
2023-04-26T05:41:36.613Z,13.70
2023-04-26T05:44:04.755Z,11.83
2023-04-26T05:46:33.640Z,12.23
2023-04-26T05:49:01.924Z,13.40
2023-04-26T05:51:30.111Z,15.53
2023-04-26T05:53:58.314Z,13.20
2023-04-26T05:56:27.802Z,15.10
2023-04-26T05:58:56.998Z,14.60
2023-04-26T06:01:26.869Z,12.77
2023-04-26T06:03:58.000Z,15.33
2023-04-26T06:06:32.137Z,13.20
2023-04-26T06:09:00.460Z,14.17
2023-04-26T06:11:31.053Z,14.07
2023-04-26T06:13:59.165Z,13.33
2023-04-26T06:16:27.201Z,13.23
2023-04-26T06:18:55.385Z,13.30
2023-04-26T06:21:23.355Z,13.60
2023-04-26T06:23:53.230Z,11.53
2023-04-26T06:26:23.240Z,11.60
2023-04-26T06:28:52.726Z,13.30
2023-04-26T06:31:21.764Z,13.83
2023-04-26T06:33:51.393Z,17.00
2023-04-26T06:36:19.618Z,16.10
2023-04-26T06:38:47.716Z,11.70
2023-04-26T06:41:15.870Z,12.90
2023-04-26T06:43:44.061Z,14.80
2023-04-26T06:46:23.063Z,13.67
2023-04-26T06:48:55.470Z,12.90
2023-04-26T06:51:23.564Z,14.70
2023-04-26T06:53:52.514Z,15.33
2023-04-26T06:56:20.823Z,11.00
2023-04-26T06:59:01.243Z,15.30
2023-04-26T07:01:33.778Z,10.40
2023-04-26T07:04:03.317Z,15.53
2023-04-26T07:06:32.543Z,11.70
2023-04-26T07:09:02.665Z,13.30
2023-04-26T07:11:30.841Z,15.27
2023-04-26T07:13:59.267Z,14.40
2023-04-26T07:16:28.072Z,15.83
2023-04-26T07:18:58.459Z,13.40
2023-04-26T07:21:27.045Z,13.00
2023-04-26T07:23:56.494Z,16.17
2023-04-26T07:26:24.704Z,16.67
2023-04-26T07:28:52.919Z,14.80
2023-04-26T07:31:21.342Z,15.83
2023-04-26T07:33:49.621Z,12.10
2023-04-26T07:36:19.174Z,14.67
2023-04-26T07:38:47.326Z,13.43
2023-04-26T07:41:16.421Z,12.13
2023-04-26T07:43:44.642Z,13.10
2023-04-26T07:46:12.849Z,14.50
2023-04-26T07:48:41.160Z,12.70
2023-04-26T07:51:09.951Z,11.67
2023-04-26T07:53:39.812Z,13.53
2023-04-26T07:56:09.179Z,13.87
2023-04-26T07:58:38.889Z,11.97
2023-04-26T08:01:07.406Z,10.07
2023-04-26T08:03:35.662Z,12.73
2023-04-26T08:06:04.184Z,12.30
2023-04-26T08:08:33.385Z,12.70
2023-04-26T08:11:03.039Z,12.10
2023-04-26T08:13:31.294Z,13.40
2023-04-26T08:15:59.391Z,10.70
2023-04-26T08:18:27.406Z,10.67
2023-04-26T08:20:55.611Z,13.80
2023-04-26T08:23:23.724Z,12.80
2023-04-26T08:25:52.045Z,11.97
2023-04-26T08:28:21.657Z,13.27
2023-04-26T08:30:49.780Z,12.83
2023-04-26T08:33:19.298Z,9.90
2023-04-26T08:35:47.498Z,10.80
2023-04-26T08:38:15.819Z,11.30
2023-04-26T08:40:47.633Z,11.60
2023-04-26T08:43:17.017Z,15.77
2023-04-26T08:45:48.410Z,12.87
2023-04-26T08:48:18.305Z,12.23
2023-04-26T08:50:47.087Z,11.00
2023-04-26T08:53:17.845Z,9.63
2023-04-26T08:55:50.426Z,11.00
2023-04-26T08:58:19.564Z,10.87
2023-04-26T09:00:48.932Z,11.17
2023-04-26T09:03:17.106Z,10.13
2023-04-26T09:05:46.433Z,13.03
2023-04-26T09:08:18.306Z,10.70
2023-04-26T09:10:46.698Z,10.27
2023-04-26T09:13:15.653Z,12.67
2023-04-26T09:15:43.728Z,11.37
2023-04-26T09:18:20.317Z,12.70
2023-04-26T09:21:03.778Z,11.07
2023-04-26T09:23:32.170Z,9.10
2023-04-26T09:26:19.070Z,8.53
2023-04-26T09:28:50.040Z,10.30
2023-04-26T09:31:39.327Z,13.13
2023-04-26T09:34:10.164Z,10.13
2023-04-26T09:36:56.149Z,13.30
2023-04-26T09:39:34.982Z,10.87
2023-04-26T09:42:04.259Z,10.10
2023-04-26T09:44:32.619Z,11.13
2023-04-26T09:47:05.197Z,12.17
2023-04-26T09:49:44.676Z,10.47
2023-04-26T09:52:12.816Z,12.83
2023-04-26T09:54:43.396Z,11.63
2023-04-26T09:57:12.065Z,10.73
2023-04-26T09:59:47.479Z,13.20
2023-04-26T10:02:18.283Z,9.97
2023-04-26T10:04:49.553Z,9.03
2023-04-26T10:07:19.192Z,9.40
2023-04-26T10:09:47.816Z,9.07
2023-04-26T10:12:18.007Z,8.27
2023-04-26T10:14:47.070Z,9.53
2023-04-26T10:17:15.440Z,9.23
2023-04-26T10:19:45.222Z,9.33
2023-04-26T10:22:22.234Z,13.27
2023-04-26T10:24:51.684Z,7.97
2023-04-26T10:27:50.075Z,12.20
2023-04-26T10:30:18.917Z,10.73
2023-04-26T10:33:17.657Z,12.47
2023-04-26T10:36:09.167Z,12.80
2023-04-26T10:38:40.134Z,13.43
2023-04-26T10:41:39.882Z,10.43
2023-04-26T10:44:39.173Z,11.97
2023-04-26T10:47:07.980Z,12.63
2023-04-26T10:49:49.203Z,11.97
2023-04-26T10:52:20.150Z,12.10
2023-04-26T10:54:57.314Z,12.00
2023-04-26T10:57:41.685Z,9.27
2023-04-26T11:00:32.024Z,8.30
2023-04-26T11:03:08.975Z,9.60
2023-04-26T11:05:55.406Z,12.40
2023-04-26T11:08:28.347Z,10.83
2023-04-26T11:11:09.113Z,11.97
2023-04-26T11:13:38.584Z,9.90
2023-04-26T11:16:08.203Z,9.10
2023-04-26T11:18:38.842Z,8.57
2023-04-26T11:21:08.016Z,8.57
2023-04-26T11:23:36.887Z,9.37
2023-04-26T11:26:08.200Z,7.00
2023-04-26T11:28:37.863Z,8.93
2023-04-26T11:31:07.145Z,10.03
2023-04-26T11:33:35.431Z,7.10
2023-04-26T11:36:04.083Z,9.03
2023-04-26T11:38:32.281Z,11.50
2023-04-26T11:41:01.694Z,8.10
2023-04-26T11:43:38.106Z,9.20
2023-04-26T11:46:07.782Z,8.17
2023-04-26T11:48:38.211Z,11.17
2023-04-26T11:51:07.897Z,9.93
2023-04-26T11:53:40.554Z,11.47
2023-04-26T11:56:18.789Z,8.63
2023-04-26T11:58:49.191Z,8.40
2023-04-26T12:01:24.293Z,10.87
2023-04-26T12:03:53.648Z,9.60
2023-04-26T12:06:26.945Z,9.70
2023-04-26T12:08:55.147Z,9.60
2023-04-26T12:11:23.394Z,8.80
2023-04-26T12:13:53.997Z,10.43
2023-04-26T12:16:26.678Z,7.97
2023-04-26T12:18:56.608Z,8.37
2023-04-26T12:21:26.994Z,10.03
2023-04-26T12:23:57.182Z,9.93
2023-04-26T12:26:43.040Z,6.13
2023-04-26T12:29:12.533Z,6.80
2023-04-26T12:31:40.893Z,6.30
2023-04-26T12:34:09.152Z,6.83
2023-04-26T12:36:38.302Z,8.77
2023-04-26T12:39:06.880Z,9.80
2023-04-26T12:41:35.320Z,11.03
2023-04-26T12:44:03.549Z,9.67
2023-04-26T12:46:33.151Z,10.10
2023-04-26T12:49:01.362Z,9.63
2023-04-26T12:51:30.409Z,10.17
2023-04-26T12:53:58.617Z,8.60
2023-04-26T12:56:26.860Z,9.40
2023-04-26T12:58:55.129Z,8.03
2023-04-26T13:01:23.295Z,8.70
2023-04-26T13:03:53.342Z,8.87
2023-04-26T13:06:21.685Z,9.10
2023-04-26T13:08:49.748Z,7.47
2023-04-26T13:11:18.392Z,8.57
2023-04-26T13:13:46.621Z,7.70
2023-04-26T13:16:14.834Z,6.60
2023-04-26T13:18:42.971Z,6.97
2023-04-26T13:21:12.567Z,8.37
2023-04-26T13:23:40.738Z,6.93
2023-04-26T13:26:08.806Z,9.47
2023-04-26T13:28:37.954Z,7.17
2023-04-26T13:31:06.487Z,8.57
2023-04-26T13:33:34.949Z,7.80
2023-04-26T13:36:03.500Z,10.30
2023-04-26T13:38:33.112Z,8.67
2023-04-26T13:41:01.640Z,9.70
2023-04-26T13:43:29.668Z,9.87
2023-04-26T13:45:57.761Z,9.83
2023-04-26T13:48:25.858Z,6.07
2023-04-26T13:50:56.354Z,8.57
2023-04-26T13:53:24.494Z,8.63
2023-04-26T13:55:54.355Z,8.17
2023-04-26T13:58:22.336Z,7.53
2023-04-26T14:00:50.523Z,7.77
2023-04-26T14:03:18.777Z,8.67
2023-04-26T14:05:47.063Z,10.00
2023-04-26T14:08:15.206Z,8.90
2023-04-26T14:10:43.478Z,6.13
2023-04-26T14:13:12.889Z,8.17
2023-04-26T14:15:41.360Z,8.33
2023-04-26T14:18:09.655Z,7.50
2023-04-26T14:20:37.981Z,6.77
2023-04-26T14:23:06.366Z,7.63
2023-04-26T14:25:34.512Z,8.80
2023-04-26T14:28:03.457Z,5.80
2023-04-26T14:30:33.098Z,7.20
2023-04-26T14:33:01.385Z,6.40
2023-04-26T14:35:29.574Z,7.73
2023-04-26T14:37:57.754Z,6.90
2023-04-26T14:40:26.336Z,6.47
2023-04-26T14:42:54.504Z,7.93
2023-04-26T14:45:27.709Z,7.97
2023-04-26T14:48:03.497Z,9.10
2023-04-26T14:50:31.558Z,9.97
2023-04-26T14:52:59.688Z,8.03
2023-04-26T14:55:28.447Z,8.53
2023-04-26T14:57:56.518Z,8.27
2023-04-26T15:00:25.643Z,10.03
2023-04-26T15:02:54.291Z,8.30
2023-04-26T15:05:24.424Z,6.67
2023-04-26T15:07:53.115Z,9.17
2023-04-26T15:10:21.342Z,7.03
2023-04-26T15:12:49.582Z,7.70
2023-04-26T15:15:17.761Z,6.60
2023-04-26T15:17:46.032Z,9.53
2023-04-26T15:20:14.475Z,7.73
2023-04-26T15:22:47.540Z,7.40
2023-04-26T15:25:17.309Z,7.50
2023-04-26T15:27:47.049Z,6.77
2023-04-26T15:30:15.364Z,8.17
2023-04-26T15:32:43.591Z,7.50
2023-04-26T15:35:15.189Z,6.17
2023-04-26T15:37:45.544Z,7.60
2023-04-26T15:40:14.305Z,6.90
2023-04-26T15:42:42.338Z,10.07
2023-04-26T15:45:11.425Z,6.50
2023-04-26T15:47:39.823Z,6.53
2023-04-26T15:50:09.135Z,6.77
2023-04-26T15:52:39.272Z,6.63
2023-04-26T15:55:09.821Z,6.37
2023-04-26T15:57:38.343Z,5.63
2023-04-26T16:00:09.589Z,6.77
2023-04-26T16:02:38.170Z,6.63
2023-04-26T16:05:08.181Z,9.00
2023-04-26T16:07:38.763Z,6.50
2023-04-26T16:10:10.161Z,7.20
2023-04-26T16:12:41.687Z,5.47
2023-04-26T16:15:10.805Z,5.23
2023-04-26T16:17:39.440Z,6.70
2023-04-26T16:20:08.791Z,6.37
2023-04-26T16:22:37.817Z,6.10
2023-04-26T16:25:08.643Z,5.93
2023-04-26T16:27:38.315Z,6.73
2023-04-26T16:30:07.765Z,7.13
2023-04-26T16:32:35.854Z,7.47
2023-04-26T16:35:04.754Z,6.90
2023-04-26T16:37:33.174Z,6.80
2023-04-26T16:40:01.610Z,6.90
2023-04-26T16:42:31.895Z,6.10
2023-04-26T16:45:01.408Z,9.53
2023-04-26T16:47:29.690Z,6.33
2023-04-26T16:49:57.773Z,6.50
2023-04-26T16:52:25.948Z,6.70
2023-04-26T16:54:54.200Z,6.53
2023-04-26T16:57:22.166Z,6.60
2023-04-26T16:59:50.875Z,6.20
2023-04-26T17:02:20.588Z,6.43
2023-04-26T17:04:48.833Z,6.40
2023-04-26T17:07:17.377Z,7.00
2023-04-26T17:09:45.527Z,7.90
2023-04-26T17:12:13.668Z,6.97
2023-04-26T17:14:42.314Z,9.50
2023-04-26T17:17:10.359Z,7.10
2023-04-26T17:19:40.197Z,8.20
2023-04-26T17:22:08.232Z,6.10
2023-04-26T17:24:36.371Z,6.50
2023-04-26T17:27:05.457Z,7.00
2023-04-26T17:29:33.571Z,6.40
2023-04-26T17:32:02.473Z,6.10
2023-04-26T17:34:30.595Z,6.90
2023-04-26T17:37:00.320Z,6.43
2023-04-26T17:39:28.755Z,9.13
2023-04-26T17:41:56.825Z,7.37
2023-04-26T17:44:25.155Z,7.17
2023-04-26T17:46:53.361Z,6.80
2023-04-26T17:49:22.122Z,7.30
2023-04-26T17:51:50.517Z,7.77
2023-04-26T17:54:20.079Z,7.13
2023-04-26T17:56:48.128Z,5.93
2023-04-26T17:59:16.486Z,8.07
2023-04-26T18:01:44.715Z,8.07
2023-04-26T18:04:13.163Z,6.07
2023-04-26T18:06:41.554Z,6.73
2023-04-26T18:09:10.561Z,6.90
2023-04-26T18:11:40.165Z,8.83
2023-04-26T18:14:08.326Z,7.10
2023-04-26T18:16:36.776Z,7.47
2023-04-26T18:19:04.996Z,9.33
2023-04-26T18:21:33.011Z,8.33
2023-04-26T18:24:01.337Z,8.00
2023-04-26T18:26:29.706Z,8.37
2023-04-26T18:28:59.167Z,10.03
2023-04-26T18:31:27.922Z,8.37
2023-04-26T18:33:56.507Z,10.83
2023-04-26T18:36:24.579Z,12.90
2023-04-26T18:38:52.907Z,13.57
2023-04-26T18:41:21.413Z,13.90
2023-04-26T18:43:49.724Z,14.93
2023-04-26T18:46:19.430Z,11.93
2023-04-26T18:48:47.792Z,13.00
2023-04-26T18:51:16.117Z,13.57
2023-04-26T18:53:44.244Z,11.37
2023-04-26T18:56:12.474Z,10.20
2023-04-26T18:58:43.232Z,11.10
2023-04-26T19:01:11.352Z,9.70
2023-04-26T19:03:41.920Z,10.00
2023-04-26T19:06:14.864Z,12.30
2023-04-26T19:08:43.472Z,13.70
2023-04-26T19:11:12.352Z,14.87
2023-04-26T19:13:41.451Z,12.27
2023-04-26T19:16:10.408Z,12.13
2023-04-26T19:18:42.014Z,10.87
2023-04-26T19:21:10.927Z,10.50
2023-04-26T19:23:39.769Z,10.53
2023-04-26T19:26:09.453Z,8.83
2023-04-26T19:28:38.058Z,8.53
2023-04-26T19:31:06.392Z,9.77
2023-04-26T19:33:34.649Z,8.40
2023-04-26T19:36:04.357Z,8.30
2023-04-26T19:38:32.547Z,11.40
2023-04-26T19:41:03.322Z,9.70
2023-04-26T19:43:31.864Z,11.03
2023-04-26T19:45:59.933Z,8.53
2023-04-26T19:48:28.628Z,13.27
2023-04-26T19:50:56.901Z,13.20
2023-04-26T19:53:27.269Z,9.17
2023-04-26T19:55:56.033Z,9.30
2023-04-26T19:58:24.045Z,8.63
2023-04-26T20:00:55.551Z,9.33
2023-04-26T20:03:24.142Z,8.23
2023-04-26T20:05:52.495Z,13.60
2023-04-26T20:08:20.731Z,8.50
2023-04-26T20:10:50.311Z,9.23
2023-04-26T20:13:18.616Z,7.87
2023-04-26T20:15:46.952Z,8.40
2023-04-26T20:18:15.137Z,8.67
2023-04-26T20:20:43.811Z,10.63
2023-04-26T20:23:12.088Z,10.70
2023-04-26T20:25:40.360Z,12.70
2023-04-26T20:28:10.447Z,9.30
2023-04-26T20:30:38.976Z,9.97
2023-04-26T20:33:07.776Z,9.07
2023-04-26T20:35:36.101Z,9.80
2023-04-26T20:38:04.806Z,9.00
2023-04-26T20:40:33.301Z,9.37
2023-04-26T20:43:02.051Z,9.70
2023-04-26T20:45:31.875Z,10.20
2023-04-26T20:48:00.290Z,11.13
2023-04-26T20:50:28.562Z,10.57
2023-04-26T20:52:57.253Z,10.70
2023-04-26T20:55:25.517Z,10.00
2023-04-26T20:57:53.818Z,10.80
2023-04-26T21:00:22.244Z,10.00
2023-04-26T21:02:52.668Z,10.27
2023-04-26T21:05:20.968Z,10.60
2023-04-26T21:07:49.159Z,10.17
2023-04-26T21:10:17.566Z,12.10
2023-04-26T21:12:45.690Z,8.90
2023-04-26T21:15:13.833Z,8.80
2023-04-26T21:17:42.073Z,9.10
2023-04-26T21:20:13.079Z,8.07
2023-04-26T21:22:41.216Z,10.40
2023-04-26T21:25:13.035Z,8.67
2023-04-26T21:27:41.263Z,9.17
2023-04-26T21:30:11.231Z,11.57
2023-04-26T21:32:41.328Z,7.63
2023-04-26T21:35:11.928Z,7.77
2023-04-26T21:37:42.926Z,7.60
2023-04-26T21:40:11.709Z,8.93
2023-04-26T21:42:39.963Z,8.40
2023-04-26T21:45:09.541Z,7.23
2023-04-26T21:47:37.994Z,7.30
2023-04-26T21:50:07.797Z,7.47
2023-04-26T21:52:37.259Z,7.13
2023-04-26T21:55:06.085Z,7.50
2023-04-26T21:57:34.241Z,7.43
2023-04-26T22:00:03.732Z,9.43
2023-04-26T22:02:41.942Z,8.93
2023-04-26T22:05:10.916Z,7.67
2023-04-26T22:07:40.358Z,8.03
2023-04-26T22:10:09.648Z,8.07
2023-04-26T22:12:37.966Z,8.80
2023-04-26T22:15:07.118Z,8.17
2023-04-26T22:17:35.161Z,7.90
2023-04-26T22:20:03.562Z,8.20
2023-04-26T22:22:31.665Z,7.93
2023-04-26T22:25:01.348Z,7.70
2023-04-26T22:27:29.518Z,8.97
2023-04-26T22:29:57.902Z,8.30
2023-04-26T22:32:26.749Z,7.27
2023-04-26T22:34:54.811Z,7.90
2023-04-26T22:37:22.808Z,8.10
2023-04-26T22:39:52.746Z,8.47
2023-04-26T22:42:22.161Z,8.20
2023-04-26T22:44:50.156Z,8.17
2023-04-26T22:47:19.076Z,7.93
2023-04-26T22:49:47.265Z,7.97
2023-04-26T22:52:28.068Z,8.37
2023-04-26T22:54:59.748Z,8.70
2023-04-26T22:57:29.756Z,7.83
2023-04-26T22:59:58.119Z,7.27
2023-04-26T23:02:26.365Z,7.63
2023-04-26T23:04:54.608Z,7.07
2023-04-26T23:07:22.865Z,7.03
2023-04-26T23:09:51.042Z,7.07
2023-04-26T23:12:20.135Z,7.40
2023-04-26T23:14:50.829Z,7.87
2023-04-26T23:17:20.525Z,7.90
2023-04-26T23:19:48.760Z,7.70
2023-04-26T23:22:16.856Z,7.83
2023-04-26T23:24:45.224Z,8.70
2023-04-26T23:27:13.407Z,7.67
2023-04-26T23:29:41.524Z,8.47
2023-04-26T23:32:11.227Z,7.93
2023-04-26T23:34:39.606Z,9.20
2023-04-26T23:37:08.370Z,7.00
2023-04-26T23:39:36.993Z,9.93
2023-04-26T23:42:05.668Z,7.77
2023-04-26T23:44:33.891Z,8.50
2023-04-26T23:47:02.224Z,7.90
2023-04-26T23:49:31.663Z,7.20
2023-04-26T23:51:59.928Z,9.00
2023-04-26T23:54:28.010Z,8.77
2023-04-26T23:56:56.163Z,7.57
2023-04-26T23:59:24.574Z,6.93
